Acarigua, Venezuela

10:10 PM VET on November 23, 2014 (GMT -0430)
Barquisimeto | Change Station
CLOSE
Current Station
Airport
Location: Barquisimeto,
Elevation: 2041 ft
Nearby Weather Stations

Elev 2041 ft 10.04 °N, 69.36 °W | Updated 40 minutes ago

Mostly Cloudy
Mostly Cloudy
73 °F
Feels Like 73 °F
N
9
Wind Variable Wind from ESE

Today
High -- | Low -- °F
--% Chance of Precip.
Yesterday
High -- | Low -- °F
Precip. -- in
6:03 AM 5:42 PM
Waxing Crescent, 3% visible
Pressure 29.98 in
Visibility 6.2 miles
Clouds Mostly Cloudy 1300 ft
Dew Point 72 °F
Humidity 94%
Rainfall 0.00 in
Snow Depth Not available.
UV 0 out of 12
Pollen Not available.
Air Quality Not available.
Flu Activity Not available.
METAR SVBM 240200Z 11008KT 9999 BKN013 23/22 Q1015

More Conditions Fewer Conditions

Pressure 29.98 in
Visibility 6.2 miles
Clouds Mostly Cloudy 1300 ft
Dew Point 72 °F
Humidity 94%
Rainfall 0.00 in
Snow Depth Not available.
UV 0 out of 12
Pollen Not available.
Air Quality Not available.
Flu Activity Not available.
METAR SVBM 240200Z 11008KT 9999 BKN013 23/22 Q1015

More Conditions Fewer Conditions

10-Day Weather Forecast

Almanac

Astronomy

Nov. 23, 2014 Rise Set
Actual Time
Civil Twilight
Nautical Twilight
Astronomical Twilight
Moon
Length of Visible Light
Length of Day
Tomorrow will be .
, % of the Moon is Illuminated

Today's Extremes

Country Highs Country Lows

Community

WunderPhotos

Upload Photos

1,773,257 photos uploaded!

WunderBlogs® & News

Nearby

Air Quality

  Air Quality AQ Index Pollutant
Not available.

Snow Depth

Station Depth Elevation

Earthquake Activity

City Distance Mag. Time & Date
Minimum magnitude displayed is 2.5.

Coastal Water Temperatures

Place Temperature

Nearby Weather Stations